sensor_id;sensor_type;location;lat;lon;timestamp;temperature;humidity
62259;DHT22;48241;48.824;10.102;2023-05-07T00:01:36;14.20;92.80
62259;DHT22;48241;48.824;10.102;2023-05-07T00:04:02;14.40;92.90
62259;DHT22;48241;48.824;10.102;2023-05-07T00:06:28;15.00;93.10
62259;DHT22;48241;48.824;10.102;2023-05-07T00:09:27;15.20;93.10
62259;DHT22;48241;48.824;10.102;2023-05-07T00:11:58;14.80;93.10
62259;DHT22;48241;48.824;10.102;2023-05-07T00:14:23;14.90;92.90
62259;DHT22;48241;48.824;10.102;2023-05-07T00:16:49;15.20;92.30
62259;DHT22;48241;48.824;10.102;2023-05-07T00:19:14;15.10;92.80
62259;DHT22;48241;48.824;10.102;2023-05-07T00:21:40;14.60;91.80
62259;DHT22;48241;48.824;10.102;2023-05-07T00:24:06;15.10;93.00
62259;DHT22;48241;48.824;10.102;2023-05-07T00:26:31;14.50;92.70
62259;DHT22;48241;48.824;10.102;2023-05-07T00:28:57;14.60;92.40
62259;DHT22;48241;48.824;10.102;2023-05-07T00:31:22;14.60;93.20
62259;DHT22;48241;48.824;10.102;2023-05-07T00:33:48;14.50;92.80
62259;DHT22;48241;48.824;10.102;2023-05-07T00:36:13;15.50;92.40
62259;DHT22;48241;48.824;10.102;2023-05-07T00:38:39;14.60;91.60
62259;DHT22;48241;48.824;10.102;2023-05-07T00:41:05;14.70;92.10
62259;DHT22;48241;48.824;10.102;2023-05-07T00:43:30;14.70;91.40
62259;DHT22;48241;48.824;10.102;2023-05-07T00:45:57;14.60;92.30
62259;DHT22;48241;48.824;10.102;2023-05-07T00:48:22;14.50;93.00
62259;DHT22;48241;48.824;10.102;2023-05-07T00:50:49;14.50;93.10
62259;DHT22;48241;48.824;10.102;2023-05-07T00:53:17;14.70;92.70
62259;DHT22;48241;48.824;10.102;2023-05-07T00:55:42;14.60;92.60
62259;DHT22;48241;48.824;10.102;2023-05-07T00:58:08;15.20;93.30
62259;DHT22;48241;48.824;10.102;2023-05-07T01:00:34;14.90;92.80
62259;DHT22;48241;48.824;10.102;2023-05-07T01:02:59;14.80;92.10
62259;DHT22;48241;48.824;10.102;2023-05-07T01:05:26;14.70;92.40
62259;DHT22;48241;48.824;10.102;2023-05-07T01:07:53;14.60;93.20
62259;DHT22;48241;48.824;10.102;2023-05-07T01:10:20;14.90;93.00
62259;DHT22;48241;48.824;10.102;2023-05-07T01:12:46;14.70;93.30
62259;DHT22;48241;48.824;10.102;2023-05-07T01:15:12;14.70;93.10
62259;DHT22;48241;48.824;10.102;2023-05-07T01:17:40;14.60;92.90
62259;DHT22;48241;48.824;10.102;2023-05-07T01:20:07;15.40;93.10
62259;DHT22;48241;48.824;10.102;2023-05-07T01:22:39;14.60;92.90
62259;DHT22;48241;48.824;10.102;2023-05-07T01:25:06;14.50;92.60
62259;DHT22;48241;48.824;10.102;2023-05-07T01:27:33;14.40;92.50
62259;DHT22;48241;48.824;10.102;2023-05-07T01:30:03;14.70;91.60
62259;DHT22;48241;48.824;10.102;2023-05-07T01:32:36;14.70;92.40
62259;DHT22;48241;48.824;10.102;2023-05-07T01:35:05;14.70;92.50
62259;DHT22;48241;48.824;10.102;2023-05-07T01:37:32;14.60;92.60
62259;DHT22;48241;48.824;10.102;2023-05-07T01:39:58;15.10;93.20
62259;DHT22;48241;48.824;10.102;2023-05-07T01:42:23;14.40;93.50
62259;DHT22;48241;48.824;10.102;2023-05-07T01:44:49;14.60;92.90
62259;DHT22;48241;48.824;10.102;2023-05-07T01:47:15;15.10;92.80
62259;DHT22;48241;48.824;10.102;2023-05-07T01:49:41;14.70;92.90
62259;DHT22;48241;48.824;10.102;2023-05-07T01:52:09;14.60;93.10
62259;DHT22;48241;48.824;10.102;2023-05-07T01:54:35;14.50;93.30
62259;DHT22;48241;48.824;10.102;2023-05-07T01:57:01;15.10;93.40
62259;DHT22;48241;48.824;10.102;2023-05-07T01:59:26;14.40;91.70
62259;DHT22;48241;48.824;10.102;2023-05-07T02:01:52;14.70;93.40
62259;DHT22;48241;48.824;10.102;2023-05-07T02:04:17;15.40;93.10
62259;DHT22;48241;48.824;10.102;2023-05-07T02:06:43;15.10;92.00
62259;DHT22;48241;48.824;10.102;2023-05-07T02:09:08;14.60;93.10
62259;DHT22;48241;48.824;10.102;2023-05-07T02:11:34;15.00;91.90
62259;DHT22;48241;48.824;10.102;2023-05-07T02:14:00;14.60;93.40
62259;DHT22;48241;48.824;10.102;2023-05-07T02:16:25;15.90;93.30
62259;DHT22;48241;48.824;10.102;2023-05-07T02:18:51;15.30;93.50
62259;DHT22;48241;48.824;10.102;2023-05-07T02:21:17;14.40;93.10
62259;DHT22;48241;48.824;10.102;2023-05-07T02:23:42;14.50;91.90
62259;DHT22;48241;48.824;10.102;2023-05-07T02:26:08;14.50;91.00
62259;DHT22;48241;48.824;10.102;2023-05-07T02:28:34;14.50;91.80
62259;DHT22;48241;48.824;10.102;2023-05-07T02:31:03;15.20;92.50
62259;DHT22;48241;48.824;10.102;2023-05-07T02:33:28;15.00;91.30
62259;DHT22;48241;48.824;10.102;2023-05-07T02:35:54;14.40;93.00
62259;DHT22;48241;48.824;10.102;2023-05-07T02:38:20;14.30;93.20
62259;DHT22;48241;48.824;10.102;2023-05-07T02:40:46;14.40;92.30
62259;DHT22;48241;48.824;10.102;2023-05-07T02:43:11;14.40;92.00
62259;DHT22;48241;48.824;10.102;2023-05-07T02:45:37;15.40;91.40
62259;DHT22;48241;48.824;10.102;2023-05-07T02:48:03;14.50;91.60
62259;DHT22;48241;48.824;10.102;2023-05-07T02:50:29;14.50;92.00
62259;DHT22;48241;48.824;10.102;2023-05-07T02:52:54;14.30;92.50
62259;DHT22;48241;48.824;10.102;2023-05-07T02:55:20;14.20;92.90
62259;DHT22;48241;48.824;10.102;2023-05-07T02:57:46;14.10;93.70
62259;DHT22;48241;48.824;10.102;2023-05-07T03:00:16;14.80;93.90
62259;DHT22;48241;48.824;10.102;2023-05-07T03:02:43;14.10;94.00
62259;DHT22;48241;48.824;10.102;2023-05-07T03:05:09;14.10;93.80
62259;DHT22;48241;48.824;10.102;2023-05-07T03:07:35;13.90;93.90
62259;DHT22;48241;48.824;10.102;2023-05-07T03:10:02;15.20;94.30
62259;DHT22;48241;48.824;10.102;2023-05-07T03:12:28;13.90;93.50
62259;DHT22;48241;48.824;10.102;2023-05-07T03:14:53;13.80;93.00
62259;DHT22;48241;48.824;10.102;2023-05-07T03:17:20;14.00;93.20
62259;DHT22;48241;48.824;10.102;2023-05-07T03:19:45;14.20;93.00
62259;DHT22;48241;48.824;10.102;2023-05-07T03:22:11;14.70;93.20
62259;DHT22;48241;48.824;10.102;2023-05-07T03:24:37;13.90;91.90
62259;DHT22;48241;48.824;10.102;2023-05-07T03:27:02;14.00;92.00
62259;DHT22;48241;48.824;10.102;2023-05-07T03:29:28;14.10;92.20
62259;DHT22;48241;48.824;10.102;2023-05-07T03:31:54;14.10;92.30
62259;DHT22;48241;48.824;10.102;2023-05-07T03:34:19;14.60;92.70
62259;DHT22;48241;48.824;10.102;2023-05-07T03:36:48;14.20;91.50
62259;DHT22;48241;48.824;10.102;2023-05-07T03:39:14;14.20;90.90
62259;DHT22;48241;48.824;10.102;2023-05-07T03:41:40;14.40;91.40
62259;DHT22;48241;48.824;10.102;2023-05-07T03:44:05;15.20;91.50
62259;DHT22;48241;48.824;10.102;2023-05-07T03:46:31;14.30;91.00
62259;DHT22;48241;48.824;10.102;2023-05-07T03:48:58;14.60;91.30
62259;DHT22;48241;48.824;10.102;2023-05-07T03:51:23;14.40;91.10
62259;DHT22;48241;48.824;10.102;2023-05-07T03:53:49;14.50;91.60
62259;DHT22;48241;48.824;10.102;2023-05-07T03:56:18;14.80;90.60
62259;DHT22;48241;48.824;10.102;2023-05-07T03:58:43;14.60;91.10
62259;DHT22;48241;48.824;10.102;2023-05-07T04:01:09;14.60;91.10
62259;DHT22;48241;48.824;10.102;2023-05-07T04:03:35;15.00;91.20
62259;DHT22;48241;48.824;10.102;2023-05-07T04:06:00;15.70;90.60
62259;DHT22;48241;48.824;10.102;2023-05-07T04:08:26;14.90;90.10
62259;DHT22;48241;48.824;10.102;2023-05-07T04:10:55;15.10;90.90
62259;DHT22;48241;48.824;10.102;2023-05-07T04:13:21;15.30;91.60
62259;DHT22;48241;48.824;10.102;2023-05-07T04:15:47;14.90;90.40
62259;DHT22;48241;48.824;10.102;2023-05-07T04:18:14;15.40;90.30
62259;DHT22;48241;48.824;10.102;2023-05-07T04:20:40;15.20;90.50
62259;DHT22;48241;48.824;10.102;2023-05-07T04:23:05;15.10;90.00
62259;DHT22;48241;48.824;10.102;2023-05-07T04:25:32;15.10;89.90
62259;DHT22;48241;48.824;10.102;2023-05-07T04:27:58;15.50;90.50
62259;DHT22;48241;48.824;10.102;2023-05-07T04:30:24;15.90;88.50
62259;DHT22;48241;48.824;10.102;2023-05-07T04:32:49;15.70;86.60
62259;DHT22;48241;48.824;10.102;2023-05-07T04:35:15;15.60;86.60
62259;DHT22;48241;48.824;10.102;2023-05-07T04:37:41;15.70;86.00
62259;DHT22;48241;48.824;10.102;2023-05-07T04:40:07;16.30;85.00
62259;DHT22;48241;48.824;10.102;2023-05-07T04:42:32;16.10;84.10
62259;DHT22;48241;48.824;10.102;2023-05-07T04:44:58;16.60;84.80
62259;DHT22;48241;48.824;10.102;2023-05-07T04:47:23;16.50;82.60
62259;DHT22;48241;48.824;10.102;2023-05-07T04:49:49;16.30;83.00
62259;DHT22;48241;48.824;10.102;2023-05-07T04:52:15;17.30;83.10
62259;DHT22;48241;48.824;10.102;2023-05-07T04:54:40;17.10;81.70
62259;DHT22;48241;48.824;10.102;2023-05-07T04:57:06;17.50;78.70
62259;DHT22;48241;48.824;10.102;2023-05-07T04:59:32;18.20;76.10
62259;DHT22;48241;48.824;10.102;2023-05-07T05:01:58;17.90;76.70
62259;DHT22;48241;48.824;10.102;2023-05-07T05:04:23;19.50;74.20
62259;DHT22;48241;48.824;10.102;2023-05-07T05:06:49;20.60;69.50
62259;DHT22;48241;48.824;10.102;2023-05-07T05:09:15;21.60;64.60
62259;DHT22;48241;48.824;10.102;2023-05-07T05:11:41;21.20;65.00
62259;DHT22;48241;48.824;10.102;2023-05-07T05:14:06;21.70;62.80
62259;DHT22;48241;48.824;10.102;2023-05-07T05:16:32;21.60;63.30
62259;DHT22;48241;48.824;10.102;2023-05-07T05:18:58;21.50;62.80
62259;DHT22;48241;48.824;10.102;2023-05-07T05:21:23;21.40;63.30
62259;DHT22;48241;48.824;10.102;2023-05-07T05:23:49;20.60;63.90
62259;DHT22;48241;48.824;10.102;2023-05-07T05:26:15;19.50;68.00
62259;DHT22;48241;48.824;10.102;2023-05-07T05:28:40;19.00;70.30
62259;DHT22;48241;48.824;10.102;2023-05-07T05:31:06;19.20;69.40
62259;DHT22;48241;48.824;10.102;2023-05-07T05:33:31;18.80;71.10
62259;DHT22;48241;48.824;10.102;2023-05-07T05:35:57;18.60;72.40
62259;DHT22;48241;48.824;10.102;2023-05-07T05:38:23;19.30;70.50
62259;DHT22;48241;48.824;10.102;2023-05-07T05:40:48;20.30;68.30
62259;DHT22;48241;48.824;10.102;2023-05-07T05:43:14;20.80;65.80
62259;DHT22;48241;48.824;10.102;2023-05-07T05:45:40;20.30;66.00
62259;DHT22;48241;48.824;10.102;2023-05-07T05:48:06;20.80;65.70
62259;DHT22;48241;48.824;10.102;2023-05-07T05:50:32;21.00;64.60
62259;DHT22;48241;48.824;10.102;2023-05-07T05:52:57;20.80;65.50
62259;DHT22;48241;48.824;10.102;2023-05-07T05:55:23;21.10;64.70
62259;DHT22;48241;48.824;10.102;2023-05-07T05:57:49;20.80;64.20
62259;DHT22;48241;48.824;10.102;2023-05-07T06:00:15;20.60;65.80
62259;DHT22;48241;48.824;10.102;2023-05-07T06:02:41;20.60;67.20
62259;DHT22;48241;48.824;10.102;2023-05-07T06:05:08;20.30;65.50
62259;DHT22;48241;48.824;10.102;2023-05-07T06:07:34;20.30;66.20
62259;DHT22;48241;48.824;10.102;2023-05-07T06:10:00;20.30;66.20
62259;DHT22;48241;48.824;10.102;2023-05-07T06:12:26;22.20;65.00
62259;DHT22;48241;48.824;10.102;2023-05-07T06:14:52;23.60;58.90
62259;DHT22;48241;48.824;10.102;2023-05-07T06:17:17;23.90;57.70
62259;DHT22;48241;48.824;10.102;2023-05-07T06:19:43;24.00;57.30
62259;DHT22;48241;48.824;10.102;2023-05-07T06:22:08;23.50;57.00
62259;DHT22;48241;48.824;10.102;2023-05-07T06:24:34;23.10;58.30
62259;DHT22;48241;48.824;10.102;2023-05-07T06:27:00;23.10;58.60
62259;DHT22;48241;48.824;10.102;2023-05-07T06:29:25;23.80;57.10
62259;DHT22;48241;48.824;10.102;2023-05-07T06:31:54;25.10;54.90
62259;DHT22;48241;48.824;10.102;2023-05-07T06:34:19;25.80;52.70
62259;DHT22;48241;48.824;10.102;2023-05-07T06:36:45;26.40;52.80
62259;DHT22;48241;48.824;10.102;2023-05-07T06:39:10;26.80;50.20
62259;DHT22;48241;48.824;10.102;2023-05-07T06:41:36;26.60;50.70
62259;DHT22;48241;48.824;10.102;2023-05-07T06:44:02;28.10;48.60
62259;DHT22;48241;48.824;10.102;2023-05-07T06:46:28;30.20;46.80
62259;DHT22;48241;48.824;10.102;2023-05-07T06:48:54;32.20;42.50
62259;DHT22;48241;48.824;10.102;2023-05-07T06:51:20;32.60;41.70
62259;DHT22;48241;48.824;10.102;2023-05-07T06:53:45;32.50;40.40
62259;DHT22;48241;48.824;10.102;2023-05-07T06:56:11;33.30;39.60
62259;DHT22;48241;48.824;10.102;2023-05-07T06:58:37;33.90;38.40
62259;DHT22;48241;48.824;10.102;2023-05-07T07:01:02;34.30;37.40
62259;DHT22;48241;48.824;10.102;2023-05-07T07:03:28;33.00;37.90
62259;DHT22;48241;48.824;10.102;2023-05-07T07:05:54;32.90;38.30
62259;DHT22;48241;48.824;10.102;2023-05-07T07:08:21;32.80;37.80
62259;DHT22;48241;48.824;10.102;2023-05-07T07:10:47;33.30;38.00
62259;DHT22;48241;48.824;10.102;2023-05-07T07:13:12;34.00;37.50
62259;DHT22;48241;48.824;10.102;2023-05-07T07:15:38;34.50;36.10
62259;DHT22;48241;48.824;10.102;2023-05-07T07:18:04;33.60;36.90
62259;DHT22;48241;48.824;10.102;2023-05-07T07:20:30;34.20;36.50
62259;DHT22;48241;48.824;10.102;2023-05-07T07:22:55;34.10;35.50
62259;DHT22;48241;48.824;10.102;2023-05-07T07:25:21;33.20;36.00
62259;DHT22;48241;48.824;10.102;2023-05-07T07:27:46;32.50;36.40
62259;DHT22;48241;48.824;10.102;2023-05-07T07:30:12;31.20;37.70
62259;DHT22;48241;48.824;10.102;2023-05-07T07:32:37;30.40;39.30
62259;DHT22;48241;48.824;10.102;2023-05-07T07:35:03;31.80;40.20
62259;DHT22;48241;48.824;10.102;2023-05-07T07:37:30;31.70;37.60
62259;DHT22;48241;48.824;10.102;2023-05-07T07:39:55;31.80;37.50
62259;DHT22;48241;48.824;10.102;2023-05-07T07:42:21;31.70;38.20
62259;DHT22;48241;48.824;10.102;2023-05-07T07:44:46;33.30;36.90
62259;DHT22;48241;48.824;10.102;2023-05-07T07:47:12;34.00;36.30
62259;DHT22;48241;48.824;10.102;2023-05-07T07:49:37;35.50;34.80
62259;DHT22;48241;48.824;10.102;2023-05-07T07:52:03;35.70;34.00
62259;DHT22;48241;48.824;10.102;2023-05-07T07:54:29;35.80;34.00
62259;DHT22;48241;48.824;10.102;2023-05-07T07:56:55;36.20;34.40
62259;DHT22;48241;48.824;10.102;2023-05-07T07:59:21;35.00;33.30
62259;DHT22;48241;48.824;10.102;2023-05-07T08:01:46;34.00;35.70
62259;DHT22;48241;48.824;10.102;2023-05-07T08:04:13;32.80;35.10
62259;DHT22;48241;48.824;10.102;2023-05-07T08:06:39;30.10;39.00
62259;DHT22;48241;48.824;10.102;2023-05-07T08:09:04;29.00;40.10
62259;DHT22;48241;48.824;10.102;2023-05-07T08:11:30;28.00;42.40
62259;DHT22;48241;48.824;10.102;2023-05-07T08:13:56;28.20;42.80
62259;DHT22;48241;48.824;10.102;2023-05-07T08:16:21;30.00;41.50
62259;DHT22;48241;48.824;10.102;2023-05-07T08:18:47;31.00;38.90
62259;DHT22;48241;48.824;10.102;2023-05-07T08:21:12;31.60;37.80
62259;DHT22;48241;48.824;10.102;2023-05-07T08:23:38;31.40;37.60
62259;DHT22;48241;48.824;10.102;2023-05-07T08:26:04;31.00;38.30
62259;DHT22;48241;48.824;10.102;2023-05-07T08:28:29;30.60;38.80
62259;DHT22;48241;48.824;10.102;2023-05-07T08:30:55;31.10;38.00
62259;DHT22;48241;48.824;10.102;2023-05-07T08:33:22;30.70;37.80
62259;DHT22;48241;48.824;10.102;2023-05-07T08:35:47;30.60;39.10
62259;DHT22;48241;48.824;10.102;2023-05-07T08:38:13;30.60;38.30
62259;DHT22;48241;48.824;10.102;2023-05-07T08:40:39;31.20;37.40
62259;DHT22;48241;48.824;10.102;2023-05-07T08:43:06;30.70;37.40
62259;DHT22;48241;48.824;10.102;2023-05-07T08:45:35;31.10;37.70
62259;DHT22;48241;48.824;10.102;2023-05-07T08:48:05;31.80;36.80
62259;DHT22;48241;48.824;10.102;2023-05-07T08:50:35;33.30;35.50
62259;DHT22;48241;48.824;10.102;2023-05-07T08:53:03;32.40;36.20
62259;DHT22;48241;48.824;10.102;2023-05-07T08:55:29;32.00;35.90
62259;DHT22;48241;48.824;10.102;2023-05-07T08:57:55;32.10;35.40
62259;DHT22;48241;48.824;10.102;2023-05-07T09:00:21;31.90;35.70
62259;DHT22;48241;48.824;10.102;2023-05-07T09:02:46;31.80;35.40
62259;DHT22;48241;48.824;10.102;2023-05-07T09:05:12;30.30;34.90
62259;DHT22;48241;48.824;10.102;2023-05-07T09:07:38;30.50;35.50
62259;DHT22;48241;48.824;10.102;2023-05-07T09:10:05;30.20;36.40
62259;DHT22;48241;48.824;10.102;2023-05-07T09:12:31;29.30;37.80
62259;DHT22;48241;48.824;10.102;2023-05-07T09:14:59;29.40;36.80
62259;DHT22;48241;48.824;10.102;2023-05-07T09:17:28;29.90;37.00
62259;DHT22;48241;48.824;10.102;2023-05-07T09:19:56;30.60;37.30
62259;DHT22;48241;48.824;10.102;2023-05-07T09:22:21;30.50;36.70
62259;DHT22;48241;48.824;10.102;2023-05-07T09:24:48;29.00;37.60
62259;DHT22;48241;48.824;10.102;2023-05-07T09:27:14;29.70;37.80
62259;DHT22;48241;48.824;10.102;2023-05-07T09:29:40;30.40;38.80
62259;DHT22;48241;48.824;10.102;2023-05-07T09:32:06;30.70;37.40
62259;DHT22;48241;48.824;10.102;2023-05-07T09:34:33;30.80;37.20
62259;DHT22;48241;48.824;10.102;2023-05-07T09:37:02;30.50;38.30
62259;DHT22;48241;48.824;10.102;2023-05-07T09:39:42;30.40;37.20
62259;DHT22;48241;48.824;10.102;2023-05-07T09:42:08;28.50;40.50
62259;DHT22;48241;48.824;10.102;2023-05-07T09:44:34;28.30;39.90
62259;DHT22;48241;48.824;10.102;2023-05-07T09:47:00;27.60;40.70
62259;DHT22;48241;48.824;10.102;2023-05-07T09:49:29;28.10;40.80
62259;DHT22;48241;48.824;10.102;2023-05-07T09:51:56;28.40;40.50
62259;DHT22;48241;48.824;10.102;2023-05-07T09:54:22;28.10;41.40
62259;DHT22;48241;48.824;10.102;2023-05-07T09:56:52;28.20;40.00
62259;DHT22;48241;48.824;10.102;2023-05-07T09:59:18;28.40;39.50
62259;DHT22;48241;48.824;10.102;2023-05-07T10:01:45;28.50;39.20
62259;DHT22;48241;48.824;10.102;2023-05-07T10:04:11;27.50;40.70
62259;DHT22;48241;48.824;10.102;2023-05-07T10:06:37;27.20;41.70
62259;DHT22;48241;48.824;10.102;2023-05-07T10:09:04;28.00;40.40
62259;DHT22;48241;48.824;10.102;2023-05-07T10:11:36;28.00;40.00
62259;DHT22;48241;48.824;10.102;2023-05-07T10:14:05;28.50;39.60
62259;DHT22;48241;48.824;10.102;2023-05-07T10:16:35;29.20;38.90
62259;DHT22;48241;48.824;10.102;2023-05-07T10:19:05;29.80;37.50
62259;DHT22;48241;48.824;10.102;2023-05-07T10:21:36;28.30;40.10
62259;DHT22;48241;48.824;10.102;2023-05-07T10:24:09;27.80;40.00
62259;DHT22;48241;48.824;10.102;2023-05-07T10:26:41;26.60;42.30
62259;DHT22;48241;48.824;10.102;2023-05-07T10:29:15;26.50;41.60
62259;DHT22;48241;48.824;10.102;2023-05-07T10:34:36;26.00;42.90
62259;DHT22;48241;48.824;10.102;2023-05-07T10:37:02;26.50;43.10
62259;DHT22;48241;48.824;10.102;2023-05-07T10:39:28;26.20;43.20
62259;DHT22;48241;48.824;10.102;2023-05-07T10:41:55;26.30;43.10
62259;DHT22;48241;48.824;10.102;2023-05-07T10:44:27;26.10;43.40
62259;DHT22;48241;48.824;10.102;2023-05-07T10:47:10;26.50;43.70
62259;DHT22;48241;48.824;10.102;2023-05-07T10:49:37;25.60;44.50
62259;DHT22;48241;48.824;10.102;2023-05-07T10:52:20;25.10;46.40
62259;DHT22;48241;48.824;10.102;2023-05-07T10:54:46;24.80;46.60
62259;DHT22;48241;48.824;10.102;2023-05-07T10:57:32;24.30;47.30
62259;DHT22;48241;48.824;10.102;2023-05-07T10:59:58;24.50;47.90
62259;DHT22;48241;48.824;10.102;2023-05-07T11:02:23;24.60;46.70
62259;DHT22;48241;48.824;10.102;2023-05-07T11:05:19;24.50;46.90
62259;DHT22;48241;48.824;10.102;2023-05-07T11:07:57;24.80;46.70
62259;DHT22;48241;48.824;10.102;2023-05-07T11:10:28;24.90;46.70
62259;DHT22;48241;48.824;10.102;2023-05-07T11:13:09;24.80;47.40
62259;DHT22;48241;48.824;10.102;2023-05-07T11:15:40;24.60;46.70
62259;DHT22;48241;48.824;10.102;2023-05-07T11:18:07;25.00;46.90
62259;DHT22;48241;48.824;10.102;2023-05-07T11:20:59;25.70;45.90
62259;DHT22;48241;48.824;10.102;2023-05-07T11:26:00;26.30;44.70
62259;DHT22;48241;48.824;10.102;2023-05-07T11:28:28;26.00;46.60
62259;DHT22;48241;48.824;10.102;2023-05-07T11:30:54;26.00;44.70
62259;DHT22;48241;48.824;10.102;2023-05-07T11:33:20;25.70;45.20
62259;DHT22;48241;48.824;10.102;2023-05-07T11:35:46;25.90;44.80
62259;DHT22;48241;48.824;10.102;2023-05-07T11:38:13;26.60;45.00
62259;DHT22;48241;48.824;10.102;2023-05-07T11:40:53;26.90;45.30
62259;DHT22;48241;48.824;10.102;2023-05-07T11:43:19;26.40;43.60
62259;DHT22;48241;48.824;10.102;2023-05-07T11:45:45;26.30;43.60
62259;DHT22;48241;48.824;10.102;2023-05-07T11:48:12;26.10;43.80
62259;DHT22;48241;48.824;10.102;2023-05-07T11:50:59;25.60;44.60
62259;DHT22;48241;48.824;10.102;2023-05-07T11:53:26;25.30;44.50
62259;DHT22;48241;48.824;10.102;2023-05-07T11:55:53;25.30;45.30
62259;DHT22;48241;48.824;10.102;2023-05-07T11:58:23;25.50;45.20
62259;DHT22;48241;48.824;10.102;2023-05-07T12:00:50;25.20;45.40
62259;DHT22;48241;48.824;10.102;2023-05-07T12:03:15;25.10;45.30
62259;DHT22;48241;48.824;10.102;2023-05-07T12:05:41;25.20;45.10
62259;DHT22;48241;48.824;10.102;2023-05-07T12:08:07;25.00;45.10
62259;DHT22;48241;48.824;10.102;2023-05-07T12:10:33;24.90;45.30
62259;DHT22;48241;48.824;10.102;2023-05-07T12:12:58;25.00;45.50
62259;DHT22;48241;48.824;10.102;2023-05-07T12:15:24;25.00;45.50
62259;DHT22;48241;48.824;10.102;2023-05-07T12:17:50;25.00;46.30
62259;DHT22;48241;48.824;10.102;2023-05-07T12:20:17;24.80;46.00
62259;DHT22;48241;48.824;10.102;2023-05-07T12:22:44;24.90;45.60
62259;DHT22;48241;48.824;10.102;2023-05-07T12:25:09;24.40;46.90
62259;DHT22;48241;48.824;10.102;2023-05-07T12:27:37;24.40;46.80
62259;DHT22;48241;48.824;10.102;2023-05-07T12:30:04;24.50;47.00
62259;DHT22;48241;48.824;10.102;2023-05-07T12:32:30;24.60;45.50
62259;DHT22;48241;48.824;10.102;2023-05-07T12:34:55;24.50;45.80
62259;DHT22;48241;48.824;10.102;2023-05-07T12:37:24;24.70;46.10
62259;DHT22;48241;48.824;10.102;2023-05-07T12:40:08;25.30;44.50
62259;DHT22;48241;48.824;10.102;2023-05-07T12:42:38;25.40;44.40
62259;DHT22;48241;48.824;10.102;2023-05-07T12:45:11;25.00;45.20
62259;DHT22;48241;48.824;10.102;2023-05-07T12:47:37;25.10;44.50
62259;DHT22;48241;48.824;10.102;2023-05-07T12:50:05;25.30;44.60
62259;DHT22;48241;48.824;10.102;2023-05-07T12:52:31;25.80;44.60
62259;DHT22;48241;48.824;10.102;2023-05-07T12:55:04;25.50;45.10
62259;DHT22;48241;48.824;10.102;2023-05-07T12:57:30;25.70;45.20
62259;DHT22;48241;48.824;10.102;2023-05-07T12:59:57;26.00;44.80
62259;DHT22;48241;48.824;10.102;2023-05-07T13:02:32;26.10;43.90
62259;DHT22;48241;48.824;10.102;2023-05-07T13:04:58;26.20;45.00
62259;DHT22;48241;48.824;10.102;2023-05-07T13:07:56;26.40;43.50
62259;DHT22;48241;48.824;10.102;2023-05-07T13:10:23;26.30;42.80
62259;DHT22;48241;48.824;10.102;2023-05-07T13:12:49;26.30;42.70
62259;DHT22;48241;48.824;10.102;2023-05-07T13:15:15;26.20;43.00
62259;DHT22;48241;48.824;10.102;2023-05-07T13:17:41;26.30;43.00
62259;DHT22;48241;48.824;10.102;2023-05-07T13:20:08;26.50;43.50
62259;DHT22;48241;48.824;10.102;2023-05-07T13:22:34;26.60;43.10
62259;DHT22;48241;48.824;10.102;2023-05-07T13:25:00;26.20;42.60
62259;DHT22;48241;48.824;10.102;2023-05-07T13:27:25;26.00;43.40
62259;DHT22;48241;48.824;10.102;2023-05-07T13:29:51;26.40;43.70
62259;DHT22;48241;48.824;10.102;2023-05-07T13:32:17;26.50;43.90
62259;DHT22;48241;48.824;10.102;2023-05-07T13:34:42;26.90;43.00
62259;DHT22;48241;48.824;10.102;2023-05-07T13:37:08;26.70;43.80
62259;DHT22;48241;48.824;10.102;2023-05-07T13:39:34;26.60;44.40
62259;DHT22;48241;48.824;10.102;2023-05-07T13:41:59;25.60;43.80
62259;DHT22;48241;48.824;10.102;2023-05-07T13:44:25;25.20;45.40
62259;DHT22;48241;48.824;10.102;2023-05-07T13:46:51;25.10;46.00
62259;DHT22;48241;48.824;10.102;2023-05-07T13:49:17;25.00;46.10
62259;DHT22;48241;48.824;10.102;2023-05-07T13:51:42;25.20;46.10
62259;DHT22;48241;48.824;10.102;2023-05-07T13:54:08;25.50;45.90
62259;DHT22;48241;48.824;10.102;2023-05-07T13:56:33;25.30;45.70
62259;DHT22;48241;48.824;10.102;2023-05-07T13:58:59;25.20;45.10
62259;DHT22;48241;48.824;10.102;2023-05-07T14:01:25;25.10;45.60
62259;DHT22;48241;48.824;10.102;2023-05-07T14:03:50;25.70;45.60
62259;DHT22;48241;48.824;10.102;2023-05-07T14:06:19;25.80;44.80
62259;DHT22;48241;48.824;10.102;2023-05-07T14:08:45;25.80;45.00
62259;DHT22;48241;48.824;10.102;2023-05-07T14:11:10;26.00;45.20
62259;DHT22;48241;48.824;10.102;2023-05-07T14:13:36;25.90;44.60
62259;DHT22;48241;48.824;10.102;2023-05-07T14:16:03;25.90;44.80
62259;DHT22;48241;48.824;10.102;2023-05-07T14:18:29;25.70;45.40
62259;DHT22;48241;48.824;10.102;2023-05-07T14:20:54;25.30;45.10
62259;DHT22;48241;48.824;10.102;2023-05-07T14:23:20;25.10;45.70
62259;DHT22;48241;48.824;10.102;2023-05-07T14:25:50;24.30;48.10
62259;DHT22;48241;48.824;10.102;2023-05-07T14:28:16;24.30;47.80
62259;DHT22;48241;48.824;10.102;2023-05-07T14:30:41;24.60;48.00
62259;DHT22;48241;48.824;10.102;2023-05-07T14:33:07;24.80;47.30
62259;DHT22;48241;48.824;10.102;2023-05-07T14:35:33;25.00;47.60
62259;DHT22;48241;48.824;10.102;2023-05-07T14:37:58;25.50;46.30
62259;DHT22;48241;48.824;10.102;2023-05-07T14:40:24;25.30;45.80
62259;DHT22;48241;48.824;10.102;2023-05-07T14:42:49;25.10;47.00
62259;DHT22;48241;48.824;10.102;2023-05-07T14:45:15;25.20;46.80
62259;DHT22;48241;48.824;10.102;2023-05-07T14:47:40;25.30;46.60
62259;DHT22;48241;48.824;10.102;2023-05-07T14:50:06;25.10;45.70
62259;DHT22;48241;48.824;10.102;2023-05-07T14:52:32;25.20;46.30
62259;DHT22;48241;48.824;10.102;2023-05-07T14:54:57;25.20;47.10
62259;DHT22;48241;48.824;10.102;2023-05-07T14:57:23;25.40;46.20
62259;DHT22;48241;48.824;10.102;2023-05-07T14:59:48;25.50;46.50
62259;DHT22;48241;48.824;10.102;2023-05-07T15:02:14;25.70;48.70
62259;DHT22;48241;48.824;10.102;2023-05-07T15:04:40;25.90;46.20
62259;DHT22;48241;48.824;10.102;2023-05-07T15:07:11;25.90;45.70
62259;DHT22;48241;48.824;10.102;2023-05-07T15:09:40;25.70;46.30
62259;DHT22;48241;48.824;10.102;2023-05-07T15:12:06;25.40;47.40
62259;DHT22;48241;48.824;10.102;2023-05-07T15:14:31;25.30;46.90
62259;DHT22;48241;48.824;10.102;2023-05-07T15:16:57;24.60;47.60
62259;DHT22;48241;48.824;10.102;2023-05-07T15:19:23;24.80;47.30